createdAt,value
2017-10-09T00:02:11.997Z,6.55
2017-10-09T00:04:40.151Z,6.70
2017-10-09T00:07:08.330Z,7.18
2017-10-09T00:09:37.277Z,7.03
2017-10-09T00:12:05.680Z,6.20
2017-10-09T00:14:34.137Z,7.90
2017-10-09T00:17:02.861Z,6.95
2017-10-09T00:19:31.010Z,6.85
2017-10-09T00:22:00.319Z,8.70
2017-10-09T00:24:28.440Z,8.60
2017-10-09T00:26:56.660Z,7.30
2017-10-09T00:29:25.555Z,7.07
2017-10-09T00:31:54.984Z,7.78
2017-10-09T00:34:23.180Z,7.37
2017-10-09T00:36:51.332Z,7.68
2017-10-09T00:39:19.641Z,7.53
2017-10-09T00:41:49.262Z,7.40
2017-10-09T00:44:18.192Z,6.25
2017-10-09T00:46:46.341Z,7.70
2017-10-09T00:49:14.537Z,7.35
2017-10-09T00:51:43.429Z,7.43
2017-10-09T00:54:12.510Z,6.70
2017-10-09T00:56:41.988Z,6.35
2017-10-09T00:59:13.001Z,7.55
2017-10-09T01:01:42.565Z,7.80
2017-10-09T01:04:10.732Z,7.00
2017-10-09T01:06:39.084Z,8.13
2017-10-09T01:09:08.364Z,9.35
2017-10-09T01:11:36.579Z,11.12
2017-10-09T01:14:04.871Z,8.88
2017-10-09T01:16:33.702Z,9.02
2017-10-09T01:19:02.105Z,8.73
2017-10-09T01:21:30.225Z,8.45
2017-10-09T01:23:58.441Z,9.27
2017-10-09T01:26:26.996Z,8.80
2017-10-09T01:28:56.615Z,9.52
2017-10-09T01:31:25.924Z,11.02
2017-10-09T01:33:55.136Z,8.40
2017-10-09T01:36:26.381Z,8.60
2017-10-09T01:38:55.061Z,8.80
2017-10-09T01:41:23.681Z,9.30
2017-10-09T01:43:53.472Z,9.23
2017-10-09T01:46:22.981Z,9.80
2017-10-09T01:48:52.457Z,10.52
2017-10-09T01:51:20.593Z,10.40
2017-10-09T01:53:48.762Z,8.80
2017-10-09T01:56:17.484Z,11.70
2017-10-09T01:58:47.041Z,9.20
2017-10-09T02:01:17.280Z,9.63
2017-10-09T02:03:46.750Z,8.90
2017-10-09T02:06:16.636Z,8.77
2017-10-09T02:08:46.571Z,8.60
2017-10-09T02:11:16.899Z,8.48
2017-10-09T02:13:45.399Z,8.00
2017-10-09T02:16:14.448Z,8.05
2017-10-09T02:18:43.241Z,7.40
2017-10-09T02:21:13.204Z,7.75
2017-10-09T02:23:42.289Z,7.60
2017-10-09T02:26:11.714Z,7.95
2017-10-09T02:28:41.049Z,7.80
2017-10-09T02:31:10.536Z,8.52
2017-10-09T02:33:40.569Z,8.10
2017-10-09T02:36:08.866Z,8.85
2017-10-09T02:38:38.120Z,9.65
2017-10-09T02:41:06.248Z,9.07
2017-10-09T02:43:35.168Z,10.40
2017-10-09T02:46:03.309Z,12.70
2017-10-09T02:48:32.288Z,9.70
2017-10-09T02:51:00.424Z,12.80
2017-10-09T02:53:28.565Z,10.95
2017-10-09T02:55:56.856Z,11.15
2017-10-09T02:58:24.991Z,9.32
2017-10-09T03:00:53.627Z,12.43
2017-10-09T03:03:21.769Z,12.55
2017-10-09T03:05:49.938Z,10.85
2017-10-09T03:08:18.079Z,11.12
2017-10-09T03:10:46.388Z,14.30
2017-10-09T03:13:14.537Z,12.95
2017-10-09T03:15:42.690Z,11.93
2017-10-09T03:18:10.866Z,12.30
2017-10-09T03:20:39.488Z,11.45
2017-10-09T03:23:07.648Z,12.00
2017-10-09T03:25:36.187Z,11.77
2017-10-09T03:28:05.389Z,13.20
2017-10-09T03:30:33.697Z,14.13
2017-10-09T03:33:01.857Z,13.57
2017-10-09T03:35:30.070Z,13.88
2017-10-09T03:38:00.463Z,14.57
2017-10-09T03:40:30.880Z,11.90
2017-10-09T03:43:01.088Z,12.93
2017-10-09T03:45:31.113Z,13.35
2017-10-09T03:48:00.400Z,12.82
2017-10-09T03:50:30.878Z,15.20
2017-10-09T03:53:01.494Z,14.02
2017-10-09T03:55:31.240Z,13.55
2017-10-09T03:58:00.685Z,13.62
2017-10-09T04:00:29.600Z,13.50
2017-10-09T04:02:59.475Z,15.95
2017-10-09T04:05:28.453Z,15.50
2017-10-09T04:08:00.796Z,13.05
2017-10-09T04:10:31.571Z,15.43
2017-10-09T04:13:02.643Z,14.98
2017-10-09T04:15:34.048Z,15.05
2017-10-09T04:18:05.106Z,14.40
2017-10-09T04:20:35.550Z,14.43
2017-10-09T04:23:03.911Z,15.52
2017-10-09T04:25:32.431Z,14.30
2017-10-09T04:28:01.716Z,15.05
2017-10-09T04:30:29.941Z,15.13
2017-10-09T04:32:58.733Z,15.52
2017-10-09T04:35:27.955Z,15.32
2017-10-09T04:37:57.870Z,15.10
2017-10-09T04:40:27.717Z,16.30
2017-10-09T04:42:56.893Z,18.58
2017-10-09T04:45:26.192Z,19.00
2017-10-09T04:47:56.008Z,17.02
2017-10-09T04:50:25.155Z,16.08
2017-10-09T04:52:54.431Z,14.15
2017-10-09T04:55:23.593Z,14.93
2017-10-09T04:57:52.514Z,20.37
2017-10-09T05:00:23.817Z,16.70
2017-10-09T05:02:53.220Z,16.58
2017-10-09T05:05:21.933Z,17.52
2017-10-09T05:07:51.756Z,18.42
2017-10-09T05:10:23.004Z,19.58
2017-10-09T05:12:54.876Z,16.50
2017-10-09T05:15:23.312Z,18.90
2017-10-09T05:17:53.810Z,18.87
2017-10-09T05:20:22.035Z,21.75
2017-10-09T05:22:51.629Z,19.73
2017-10-09T05:25:20.666Z,19.98
2017-10-09T05:27:49.664Z,19.70
2017-10-09T05:30:18.474Z,23.77
2017-10-09T05:32:49.293Z,20.85
2017-10-09T05:35:20.977Z,28.50
2017-10-09T05:37:50.935Z,26.85
2017-10-09T05:40:19.368Z,29.15
2017-10-09T05:42:48.617Z,27.95
2017-10-09T05:45:18.900Z,32.28
2017-10-09T05:47:49.310Z,26.92
2017-10-09T05:50:19.927Z,24.35
2017-10-09T05:52:49.407Z,29.12
2017-10-09T05:55:19.881Z,31.70
2017-10-09T05:57:50.124Z,26.55
2017-10-09T06:00:21.096Z,26.02
2017-10-09T06:02:49.329Z,26.98
2017-10-09T06:05:18.628Z,26.37
2017-10-09T06:07:48.754Z,27.35
2017-10-09T06:10:17.348Z,25.85
2017-10-09T06:12:46.749Z,28.20
2017-10-09T06:15:17.596Z,25.45
2017-10-09T06:17:47.843Z,21.77
2017-10-09T06:20:17.660Z,24.75
2017-10-09T06:22:48.164Z,26.20
2017-10-09T06:25:16.513Z,25.05
2017-10-09T06:27:46.837Z,25.20
2017-10-09T06:30:18.150Z,23.42
2017-10-09T06:32:48.385Z,23.85
2017-10-09T06:35:16.725Z,28.70
2017-10-09T06:37:46.616Z,24.95
2017-10-09T06:40:16.954Z,22.90
2017-10-09T06:42:47.919Z,23.75
2017-10-09T06:45:19.330Z,24.27
2017-10-09T06:47:48.366Z,25.80
2017-10-09T06:50:17.419Z,23.70
2017-10-09T06:52:48.183Z,23.42
2017-10-09T06:55:18.392Z,23.45
2017-10-09T06:57:50.012Z,22.95
2017-10-09T07:00:19.231Z,23.12
2017-10-09T07:02:47.385Z,24.83
2017-10-09T07:05:15.569Z,26.40
2017-10-09T07:07:44.186Z,26.23
2017-10-09T07:10:14.098Z,24.92
2017-10-09T07:12:42.331Z,26.87
2017-10-09T07:15:10.584Z,26.87
2017-10-09T07:17:40.302Z,24.37
2017-10-09T07:20:08.721Z,26.73
2017-10-09T07:22:38.278Z,21.30
2017-10-09T07:25:07.282Z,21.55
2017-10-09T07:27:36.893Z,23.83
2017-10-09T07:30:05.618Z,20.88
2017-10-09T07:32:35.032Z,24.67
2017-10-09T07:35:04.145Z,27.25
2017-10-09T07:37:32.714Z,22.35
2017-10-09T07:40:01.704Z,32.42
2017-10-09T07:42:30.509Z,24.45
2017-10-09T07:45:02.844Z,25.48
2017-10-09T07:47:32.466Z,20.95
2017-10-09T07:50:00.959Z,18.23
2017-10-09T07:52:29.162Z,23.48
2017-10-09T07:54:57.328Z,19.45
2017-10-09T07:57:25.823Z,18.95
2017-10-09T07:59:55.257Z,20.52
2017-10-09T08:02:23.481Z,25.17
2017-10-09T08:04:53.549Z,21.87
2017-10-09T08:07:23.052Z,22.13
2017-10-09T08:09:52.624Z,22.65
2017-10-09T08:12:20.833Z,26.62
2017-10-09T08:14:50.592Z,25.15
2017-10-09T08:17:19.669Z,22.60
2017-10-09T08:19:47.825Z,20.50
2017-10-09T08:22:16.131Z,19.08
2017-10-09T08:24:45.512Z,24.55
2017-10-09T08:27:14.649Z,22.20
2017-10-09T08:29:43.180Z,17.95
2017-10-09T08:32:11.760Z,19.95
2017-10-09T08:34:40.028Z,20.10
2017-10-09T08:37:09.060Z,20.75
2017-10-09T08:39:38.128Z,18.80
2017-10-09T08:42:07.730Z,17.95
2017-10-09T08:44:36.388Z,24.60
2017-10-09T08:47:04.572Z,18.50
2017-10-09T08:49:32.737Z,18.08
2017-10-09T08:52:00.957Z,18.37
2017-10-09T08:54:29.130Z,20.52
2017-10-09T08:56:57.364Z,13.00
2017-10-09T08:59:25.516Z,14.80
2017-10-09T09:01:53.665Z,12.50
2017-10-09T09:04:21.835Z,11.75
2017-10-09T09:06:50.123Z,11.55
2017-10-09T09:09:19.072Z,10.82
2017-10-09T09:11:47.216Z,9.50
2017-10-09T09:14:15.498Z,10.35
2017-10-09T09:16:43.656Z,10.00
2017-10-09T09:19:11.821Z,9.93
2017-10-09T09:21:39.966Z,11.95
2017-10-09T09:24:08.256Z,12.05
2017-10-09T09:26:37.199Z,12.13
2017-10-09T09:29:05.356Z,11.70
2017-10-09T09:31:33.537Z,11.50
2017-10-09T09:34:01.710Z,12.85
2017-10-09T09:36:29.887Z,12.55
2017-10-09T09:38:58.024Z,14.32
2017-10-09T09:41:26.317Z,15.52
2017-10-09T09:43:54.490Z,14.57
2017-10-09T09:46:22.676Z,18.30
2017-10-09T09:48:50.825Z,17.98
2017-10-09T09:51:18.980Z,15.93
2017-10-09T09:53:47.948Z,17.70
2017-10-09T09:56:16.127Z,19.05
2017-10-09T09:58:44.434Z,18.80
2017-10-09T10:01:13.344Z,17.58
2017-10-09T10:03:41.529Z,15.07
2017-10-09T10:06:09.703Z,16.87
2017-10-09T10:08:37.843Z,18.75
2017-10-09T10:11:06.817Z,15.73
2017-10-09T10:13:34.952Z,15.95
2017-10-09T10:16:10.310Z,14.63
2017-10-09T10:18:39.000Z,12.65
2017-10-09T10:21:07.216Z,15.40
2017-10-09T10:23:36.126Z,11.77
2017-10-09T10:26:04.300Z,12.55
2017-10-09T10:28:32.441Z,9.63
2017-10-09T10:31:01.827Z,12.10
2017-10-09T10:33:30.010Z,13.02
2017-10-09T10:35:58.149Z,11.07
2017-10-09T10:38:26.426Z,8.93
2017-10-09T10:40:54.581Z,8.45
2017-10-09T10:43:23.094Z,10.40
2017-10-09T10:45:51.231Z,11.23
2017-10-09T10:48:19.408Z,9.52
2017-10-09T10:50:47.553Z,10.80
2017-10-09T10:53:16.484Z,9.18
2017-10-09T10:55:44.784Z,13.40
2017-10-09T10:58:12.929Z,11.50
2017-10-09T11:00:41.106Z,11.85
2017-10-09T11:03:09.263Z,13.55
2017-10-09T11:05:37.445Z,12.32
2017-10-09T11:08:05.603Z,13.40
2017-10-09T11:10:33.783Z,12.52
2017-10-09T11:13:02.060Z,11.55
2017-10-09T11:15:30.232Z,10.63
2017-10-09T11:17:58.401Z,14.13
2017-10-09T11:20:26.567Z,11.50
2017-10-09T11:22:55.476Z,11.48
2017-10-09T11:25:23.773Z,12.37
2017-10-09T11:27:51.933Z,10.75
2017-10-09T11:30:20.163Z,10.30
2017-10-09T11:32:48.304Z,11.80
2017-10-09T11:35:16.453Z,13.85
2017-10-09T11:37:44.648Z,16.58
2017-10-09T11:40:12.808Z,13.07
2017-10-09T11:42:40.994Z,11.75
2017-10-09T11:45:09.181Z,10.77
2017-10-09T11:47:37.320Z,9.15
2017-10-09T11:50:05.578Z,10.32
2017-10-09T11:52:33.717Z,9.20
2017-10-09T11:55:01.884Z,10.23
2017-10-09T11:57:44.860Z,8.02
2017-10-09T12:00:13.025Z,7.57
2017-10-09T12:02:41.156Z,7.68
2017-10-09T12:05:09.444Z,10.30
2017-10-09T12:07:38.385Z,7.55
2017-10-09T12:10:06.670Z,7.85
2017-10-09T12:12:34.862Z,7.43
2017-10-09T12:15:03.014Z,7.37
2017-10-09T12:17:31.164Z,9.63
2017-10-09T12:19:59.314Z,7.90
2017-10-09T12:22:28.240Z,9.82
2017-10-09T12:24:56.420Z,8.38
2017-10-09T12:27:24.578Z,7.90
2017-10-09T12:29:52.850Z,7.20
2017-10-09T12:32:20.995Z,8.10
2017-10-09T12:34:49.924Z,6.40
2017-10-09T12:37:18.068Z,7.32
2017-10-09T12:39:47.129Z,8.27
2017-10-09T12:42:15.267Z,6.47
2017-10-09T12:44:43.428Z,7.03
2017-10-09T12:47:11.600Z,6.47
2017-10-09T12:49:39.735Z,5.50
2017-10-09T12:52:07.895Z,5.95
2017-10-09T12:54:36.041Z,5.97
2017-10-09T12:57:04.347Z,7.35
2017-10-09T12:59:32.487Z,5.28
2017-10-09T13:02:00.628Z,4.78
2017-10-09T13:04:29.554Z,4.97
2017-10-09T13:06:57.728Z,4.53
2017-10-09T13:09:25.872Z,4.32
2017-10-09T13:11:54.028Z,4.78
2017-10-09T13:14:22.297Z,3.92
2017-10-09T13:16:50.485Z,3.37
2017-10-09T13:19:19.393Z,3.80
2017-10-09T13:21:47.565Z,4.47
2017-10-09T13:24:16.484Z,5.20
2017-10-09T13:26:44.624Z,4.80
2017-10-09T13:29:12.811Z,4.35
2017-10-09T13:31:41.714Z,3.75
2017-10-09T13:34:09.853Z,4.78
2017-10-09T13:36:38.791Z,5.12
2017-10-09T13:39:06.933Z,3.85
2017-10-09T13:41:35.106Z,3.50
2017-10-09T13:44:03.252Z,4.57
2017-10-09T13:46:31.476Z,3.58
2017-10-09T13:48:59.625Z,5.30
2017-10-09T13:51:28.514Z,3.70
2017-10-09T13:53:56.782Z,4.30
2017-10-09T13:56:25.006Z,4.18
2017-10-09T13:58:54.213Z,3.30
2017-10-09T14:01:22.348Z,3.90
2017-10-09T14:03:50.664Z,4.37
2017-10-09T14:06:18.804Z,3.75
2017-10-09T14:08:46.965Z,4.18
2017-10-09T14:11:15.158Z,3.40
2017-10-09T14:13:43.315Z,4.10
2017-10-09T14:16:11.495Z,3.87
2017-10-09T14:18:39.659Z,3.87
2017-10-09T14:21:07.856Z,3.45
2017-10-09T14:23:36.017Z,3.30
2017-10-09T14:26:04.180Z,4.20
2017-10-09T14:28:33.185Z,3.65
2017-10-09T14:31:02.876Z,5.53
2017-10-09T14:41:01.874Z,4.10
2017-10-09T14:43:32.113Z,5.03
2017-10-09T14:46:03.305Z,3.75
2017-10-09T14:48:33.859Z,3.80
2017-10-09T14:51:03.433Z,4.37
2017-10-09T14:53:33.609Z,3.42
2017-10-09T14:56:02.993Z,4.35
2017-10-09T14:58:33.627Z,3.90
2017-10-09T15:01:01.962Z,3.80
2017-10-09T15:03:31.149Z,4.57
2017-10-09T15:06:02.881Z,3.85
2017-10-09T15:08:33.580Z,3.20
2017-10-09T15:11:03.936Z,4.82
2017-10-09T15:13:35.566Z,3.28
2017-10-09T15:16:06.606Z,3.28
2017-10-09T15:18:35.629Z,2.87
2017-10-09T15:21:06.467Z,2.83
2017-10-09T15:23:35.918Z,2.55
2017-10-09T15:26:09.026Z,2.80
2017-10-09T15:28:38.258Z,3.30
2017-10-09T15:31:06.987Z,3.17
2017-10-09T15:33:38.601Z,3.22
2017-10-09T15:36:09.296Z,2.92
2017-10-09T15:38:40.390Z,3.37
2017-10-09T15:41:11.031Z,3.55
2017-10-09T15:43:41.677Z,3.42
2017-10-09T15:46:12.636Z,3.12
2017-10-09T15:48:43.806Z,3.28
2017-10-09T15:51:14.765Z,3.25
2017-10-09T15:53:44.992Z,3.47
2017-10-09T15:56:15.872Z,4.35
2017-10-09T15:58:44.864Z,3.22
2017-10-09T16:01:15.529Z,3.40
2017-10-09T16:03:44.600Z,3.85
2017-10-09T16:06:15.763Z,3.80
2017-10-09T16:08:45.837Z,3.70
2017-10-09T16:11:16.062Z,4.47
2017-10-09T16:13:46.041Z,4.37
2017-10-09T16:16:17.389Z,3.97
2017-10-09T16:18:48.339Z,3.65
2017-10-09T16:21:19.711Z,3.70
2017-10-09T16:23:49.795Z,6.62
2017-10-09T16:26:19.056Z,5.70
2017-10-09T16:28:47.571Z,3.60
2017-10-09T16:31:18.619Z,4.28
2017-10-09T16:33:46.768Z,4.07
2017-10-09T16:36:15.314Z,5.07
2017-10-09T16:38:43.490Z,5.03
2017-10-09T16:41:13.415Z,4.15
2017-10-09T16:43:44.542Z,17.10
2017-10-09T16:46:15.108Z,4.25
2017-10-09T16:48:47.969Z,3.10
2017-10-09T16:51:19.257Z,4.12
2017-10-09T16:53:49.018Z,6.30
2017-10-09T16:56:19.406Z,11.45
2017-10-09T16:58:50.754Z,9.65
2017-10-09T17:01:22.561Z,5.37
2017-10-09T17:03:53.301Z,5.65
2017-10-09T17:06:22.253Z,5.15
2017-10-09T17:08:53.441Z,5.55
2017-10-09T17:11:24.313Z,7.35
2017-10-09T17:13:55.929Z,5.15
2017-10-09T17:16:26.281Z,5.50
2017-10-09T17:18:57.791Z,5.90
2017-10-09T17:21:29.067Z,5.45
2017-10-09T17:24:00.101Z,4.70
2017-10-09T17:26:31.687Z,5.68
2017-10-09T17:29:02.424Z,7.25
2017-10-09T17:31:33.105Z,5.65
2017-10-09T17:34:02.478Z,7.68
2017-10-09T17:36:32.514Z,6.78
2017-10-09T17:39:03.150Z,6.80
2017-10-09T17:41:35.077Z,6.28
2017-10-09T17:44:05.225Z,6.68
2017-10-09T17:46:37.797Z,5.90
2017-10-09T17:49:08.987Z,6.07
2017-10-09T17:51:39.331Z,6.05
2017-10-09T17:54:09.429Z,5.50
2017-10-09T17:56:38.562Z,6.05
2017-10-09T17:59:09.082Z,6.97
2017-10-09T18:01:39.381Z,7.15
2017-10-09T18:04:08.461Z,8.27
2017-10-09T18:06:39.550Z,7.07
2017-10-09T18:09:09.201Z,6.30
2017-10-09T18:11:39.982Z,6.07
2017-10-09T18:14:09.785Z,6.35
2017-10-09T18:16:40.141Z,6.20
2017-10-09T18:19:10.308Z,5.55
2017-10-09T18:21:40.194Z,6.20
2017-10-09T18:24:10.157Z,6.60
2017-10-09T18:26:39.664Z,7.62
2017-10-09T18:29:08.480Z,7.07
2017-10-09T18:31:38.870Z,6.65
2017-10-09T18:34:08.879Z,7.68
2017-10-09T18:36:40.487Z,7.10
2017-10-09T18:39:10.608Z,8.40
2017-10-09T18:41:38.768Z,7.28
2017-10-09T18:44:08.535Z,7.28
2017-10-09T18:46:38.511Z,7.32
2017-10-09T18:49:07.975Z,8.48
2017-10-09T18:51:37.338Z,7.40
2017-10-09T18:54:06.917Z,8.35
2017-10-09T18:56:35.353Z,8.65
2017-10-09T18:59:05.303Z,7.43
2017-10-09T19:01:34.595Z,8.00
2017-10-09T19:04:04.240Z,7.30
2017-10-09T19:06:32.668Z,7.47
2017-10-09T19:09:00.834Z,7.47
2017-10-09T19:11:29.398Z,7.53
2017-10-09T19:13:58.148Z,9.07
2017-10-09T19:16:27.414Z,8.20
2017-10-09T19:18:56.489Z,10.63
2017-10-09T19:21:24.669Z,8.60
2017-10-09T19:23:54.351Z,8.15
2017-10-09T19:26:25.299Z,9.18
2017-10-09T19:28:55.993Z,7.68
2017-10-09T19:31:24.189Z,7.43
2017-10-09T19:33:54.760Z,7.75
2017-10-09T19:36:25.818Z,7.55
2017-10-09T19:38:54.753Z,6.70
2017-10-09T19:41:23.023Z,6.72
2017-10-09T19:43:51.614Z,7.40
2017-10-09T19:46:22.216Z,5.78
2017-10-09T19:48:50.762Z,6.18
2017-10-09T19:51:19.130Z,6.95
2017-10-09T19:53:47.722Z,6.20
2017-10-09T19:56:16.299Z,8.23
2017-10-09T19:58:45.619Z,7.18
2017-10-09T20:01:14.581Z,7.05
2017-10-09T20:03:43.514Z,8.75
2017-10-09T20:06:11.803Z,7.00
2017-10-09T20:08:40.942Z,6.18
2017-10-09T20:11:09.098Z,6.32
2017-10-09T20:13:44.326Z,6.15
2017-10-09T20:16:12.554Z,6.28
2017-10-09T20:18:41.132Z,6.70
2017-10-09T20:21:09.719Z,6.47
2017-10-09T20:23:37.906Z,7.18
2017-10-09T20:26:06.884Z,6.57
2017-10-09T20:28:36.880Z,7.05
2017-10-09T20:31:13.253Z,6.70
2017-10-09T20:33:41.534Z,6.53
2017-10-09T20:36:09.754Z,6.18
2017-10-09T20:38:37.966Z,9.50
2017-10-09T20:41:06.405Z,7.47
2017-10-09T20:43:36.789Z,6.45
2017-10-09T20:46:05.313Z,8.77
2017-10-09T20:48:34.294Z,9.30
2017-10-09T20:51:03.776Z,9.82
2017-10-09T20:53:33.330Z,9.95
2017-10-09T20:56:01.585Z,9.50
2017-10-09T20:58:30.502Z,8.75
2017-10-09T21:00:59.522Z,9.05
2017-10-09T21:03:27.822Z,8.50
2017-10-09T21:05:56.970Z,7.47
2017-10-09T21:08:25.178Z,10.50
2017-10-09T21:10:53.347Z,8.40
2017-10-09T21:13:21.519Z,7.80
2017-10-09T21:15:49.697Z,8.68
2017-10-09T21:18:17.951Z,7.55
2017-10-09T21:20:46.119Z,8.05
2017-10-09T21:23:15.129Z,9.93
2017-10-09T21:25:44.879Z,7.62
2017-10-09T21:28:13.027Z,8.27
2017-10-09T21:30:41.177Z,12.43
2017-10-09T21:33:09.440Z,8.65
2017-10-09T21:35:37.618Z,7.93
2017-10-09T21:38:06.603Z,8.50
2017-10-09T21:40:34.797Z,8.02
2017-10-09T21:43:02.962Z,8.10
2017-10-09T21:45:31.168Z,9.30
2017-10-09T21:47:59.312Z,7.72
2017-10-09T21:50:28.031Z,6.72
2017-10-09T21:52:56.917Z,6.80
2017-10-09T21:55:25.097Z,7.32
2017-10-09T21:57:53.292Z,14.93
2017-10-09T22:00:22.272Z,6.18
2017-10-09T22:02:50.404Z,6.53
2017-10-09T22:05:18.599Z,5.60
2017-10-09T22:07:48.074Z,6.40
2017-10-09T22:10:16.272Z,6.78
2017-10-09T22:12:44.445Z,5.80
2017-10-09T22:15:12.569Z,6.30
2017-10-09T22:17:41.625Z,5.85
2017-10-09T22:20:09.768Z,6.50
2017-10-09T22:22:38.700Z,5.50
2017-10-09T22:25:06.845Z,6.25
2017-10-09T22:27:35.028Z,6.32
2017-10-09T22:30:03.159Z,8.93
2017-10-09T22:32:31.316Z,5.87
2017-10-09T22:34:59.596Z,5.85
2017-10-09T22:37:28.509Z,5.80
2017-10-09T22:39:56.797Z,6.10
2017-10-09T22:42:24.964Z,5.80
2017-10-09T22:44:53.113Z,5.07
2017-10-09T22:47:22.062Z,6.05
2017-10-09T22:49:50.212Z,5.05
2017-10-09T22:52:18.422Z,4.97
2017-10-09T22:54:46.552Z,4.72
2017-10-09T22:57:14.713Z,5.70
2017-10-09T22:59:43.021Z,5.00
2017-10-09T23:02:11.162Z,7.43
2017-10-09T23:04:39.431Z,7.03
2017-10-09T23:07:07.573Z,5.50
2017-10-09T23:09:35.744Z,6.57
2017-10-09T23:12:03.884Z,5.97
2017-10-09T23:14:32.186Z,5.75
2017-10-09T23:17:00.325Z,6.80
2017-10-09T23:19:28.460Z,5.47
2017-10-09T23:21:56.625Z,6.18
2017-10-09T23:24:25.565Z,5.43
2017-10-09T23:26:54.500Z,5.18
2017-10-09T23:29:22.672Z,5.78
2017-10-09T23:31:50.816Z,6.10
2017-10-09T23:34:19.096Z,5.93
2017-10-09T23:36:47.273Z,6.12
2017-10-09T23:39:15.406Z,6.30
2017-10-09T23:41:43.678Z,6.47
2017-10-09T23:44:11.817Z,6.68
2017-10-09T23:46:39.989Z,6.53
2017-10-09T23:49:08.134Z,6.10
2017-10-09T23:51:36.261Z,7.70
2017-10-09T23:54:05.188Z,6.50
2017-10-09T23:56:33.327Z,7.90
2017-10-09T23:59:01.600Z,7.32
